Time;durP1;ratioP1;P1;durP2;ratioP2;P2;SDS_P1;SDS_P2;PMS_P1;PMS_P2;Temp;Humidity;BMP_temperature;BMP_pressure;BME280_temperature;BME280_humidity;BME280_pressure;Samples;Min_cycle;Max_cycle;Signal;HPM_P1;HPM_P2
2022/05/07 11:02:32;;;;;;;9.20;2.72;;;;;;;27.44;18.01;100494.84;3522458;27;20387;-71
2022/05/07 11:04:17;;;;;;;;;;;;;;;27.59;17.60;100463.78;3517392;28;20033;-68
2022/05/07 11:06:00;;;;;;;2.35;1.98;;;;;;;27.41;17.85;100484.50;3514776;28;20446;-69
2022/05/07 11:07:43;;;;;;;3.13;2.10;;;;;;;27.28;17.50;100485.16;3514925;28;20119;-70
2022/05/07 11:09:25;;;;;;;2.95;2.72;;;;;;;27.15;17.65;100487.41;3513533;28;20458;-70
2022/05/07 11:11:10;;;;;;;6.57;2.38;;;;;;;27.04;17.63;100482.31;3515781;28;20036;-70
2022/05/07 11:12:51;;;;;;;2.33;2.05;;;;;;;26.83;17.68;100479.72;3513921;28;20090;-71
2022/05/07 11:14:35;;;;;;;3.50;2.17;;;;;;;26.65;17.56;100481.19;3515779;28;20070;-71
2022/05/07 11:16:20;;;;;;;4.50;2.13;;;;;;;26.60;17.76;100480.41;3514516;28;20036;-70
2022/05/07 11:18:01;;;;;;;3.08;2.17;;;;;;;26.56;17.97;100473.84;3514279;28;20497;-70
2022/05/07 11:19:41;;;;;;;3.53;2.57;;;;;;;26.49;18.21;100474.16;3513687;28;20036;-68
2022/05/07 11:21:24;;;;;;;23.40;3.77;;;;;;;26.35;18.13;100467.66;3513663;28;20042;-69
2022/05/07 11:23:07;;;;;;;8.50;2.28;;;;;;;26.33;18.51;100455.09;3517432;28;20139;-80
2022/05/07 11:24:57;;;;;;;4.07;2.13;;;;;;;26.29;18.76;100462.19;3499071;28;20062;-81
2022/05/07 11:26:40;;;;;;;3.88;1.92;;;;;;;26.23;18.52;100457.88;3509852;28;20068;-79
2022/05/07 11:28:24;;;;;;;5.10;2.17;;;;;;;26.25;18.77;100463.03;3513471;28;20123;-80
2022/05/07 11:30:06;;;;;;;3.58;1.88;;;;;;;26.26;18.82;100457.31;3513966;28;20036;-81
2022/05/07 11:32:07;;;;;;;2.30;1.98;;;;;;;26.27;19.15;100449.91;3516457;28;20040;-83
2022/05/07 11:34:00;;;;;;;3.72;1.98;;;;;;;26.42;18.84;100447.09;3516894;28;20048;-80
2022/05/07 11:35:41;;;;;;;3.58;2.00;;;;;;;26.58;18.80;100452.53;3516075;28;20036;-81
2022/05/07 11:37:23;;;;;;;5.10;1.83;;;;;;;26.74;18.39;100452.16;3513586;28;20477;-78
2022/05/07 11:39:08;;;;;;;5.50;2.30;;;;;;;26.88;18.36;100457.78;3515732;28;20036;-76
2022/05/07 11:40:50;;;;;;;2.75;1.92;;;;;;;27.04;18.04;100442.06;3509928;28;20134;-75
2022/05/07 11:42:45;;;;;;;6.65;3.15;;;;;;;27.23;18.17;100444.94;3513013;28;20032;-76
2022/05/07 11:46:25;;;;;;;5.93;2.20;;;;;;;27.28;18.36;100444.09;3516215;28;20487;-78
2022/05/07 11:48:09;;;;;;;7.13;2.57;;;;;;;27.43;17.98;100460.38;3513990;28;20036;-78
2022/05/07 11:50:06;;;;;;;6.68;2.83;;;;;;;27.56;18.20;100442.47;3510725;28;20546;-78
2022/05/07 11:51:46;;;;;;;4.57;2.30;;;;;;;27.37;17.55;100451.41;3513140;28;20036;-77
2022/05/07 11:53:35;;;;;;;5.70;2.15;;;;;;;27.09;18.06;100433.00;3512521;28;20063;-75
2022/05/07 11:55:17;;;;;;;4.38;2.70;;;;;;;26.99;18.88;100433.91;3513069;28;20126;-75
2022/05/07 11:56:59;;;;;;;2.28;2.08;;;;;;;26.95;18.76;100422.72;3514257;28;20040;-74
2022/05/07 11:58:44;;;;;;;;;;;;;;;27.03;19.03;100424.03;3515211;28;20062;-75
2022/05/07 12:00:27;;;;;;;8.55;1.75;;;;;;;26.90;18.85;100428.25;3513809;28;19940;-76
2022/05/07 12:02:09;;;;;;;8.50;2.00;;;;;;;26.85;18.78;100420.06;3500638;28;20052;-71
2022/05/07 12:03:50;;;;;;;2.50;2.00;;;;;;;26.78;18.32;100416.84;3510166;28;20503;-70
2022/05/07 12:05:42;;;;;;;4.35;2.65;;;;;;;26.91;17.66;100413.44;3515390;28;20381;-70
2022/05/07 12:07:23;;;;;;;5.97;2.58;;;;;;;27.15;17.43;100415.44;3514991;28;20128;-71
2022/05/07 12:09:15;;;;;;;5.07;2.10;;;;;;;27.58;17.59;100404.66;3513499;28;20036;-71
2022/05/07 12:10:56;;;;;;;6.22;2.50;;;;;;;27.76;16.83;100409.38;3513816;28;20520;-71
2022/05/07 12:12:36;;;;;;;5.38;2.63;;;;;;;27.63;17.33;100410.06;3495416;28;20040;-71
2022/05/07 12:14:17;;;;;;;8.40;2.70;;;;;;;27.39;17.01;100410.88;3499236;28;20036;-71
2022/05/07 12:17:58;;;;;;;3.00;2.10;;;;;;;27.08;17.34;100390.31;3504573;28;20047;-71
2022/05/07 12:19:39;;;;;;;2.87;2.20;;;;;;;27.03;18.15;100401.31;3505079;28;20036;-71
2022/05/07 12:29:48;;;;;;;4.60;2.17;;;;;;;27.05;17.64;100413.59;3504800;28;20047;-72
2022/05/07 12:31:18;;;;;;;5.47;2.03;;;;;;;27.00;17.65;100380.00;3503870;28;20043;-75
2022/05/07 12:32:59;;;;;;;11.23;2.40;;;;;;;26.78;17.65;100391.41;3503673;28;20446;-70
2022/05/07 12:34:39;;;;;;;3.13;2.07;;;;;;;26.54;17.77;100381.19;3504355;28;20043;-70
2022/05/07 12:36:20;;;;;;;2.50;1.80;;;;;;;26.32;18.01;100376.09;3504735;28;20042;-71
2022/05/07 12:38:01;;;;;;;7.00;2.43;;;;;;;26.16;17.96;100393.69;3504861;28;20040;-71
2022/05/07 12:39:42;;;;;;;7.00;2.40;;;;;;;25.95;18.09;100377.41;3504373;28;20035;-72
2022/05/07 12:41:23;;;;;;;4.40;3.03;;;;;;;25.73;18.01;100385.09;3490664;28;20102;-70
2022/05/07 12:43:03;;;;;;;2.60;2.00;;;;;;;25.52;18.17;100385.16;3500211;28;20487;-70
2022/05/07 12:44:45;;;;;;;2.50;1.90;;;;;;;25.24;18.04;100373.72;3504867;28;20039;-71
2022/05/07 12:46:27;;;;;;;2.83;1.70;;;;;;;25.00;18.57;100376.19;3503772;28;20513;-70
2022/05/07 12:48:08;;;;;;;4.10;1.95;;;;;;;24.87;18.65;100370.47;3502844;28;20411;-71
2022/05/07 12:49:49;;;;;;;3.65;2.15;;;;;;;24.77;18.77;100368.56;3504338;28;20179;-67
2022/05/07 12:51:30;;;;;;;6.03;2.75;;;;;;;24.79;19.32;100360.94;3499381;28;20036;-70
2022/05/07 12:53:11;;;;;;;5.57;2.27;;;;;;;24.87;20.00;100362.28;3502986;28;20523;-70
2022/05/07 12:54:52;;;;;;;9.50;2.63;;;;;;;24.94;19.82;100363.66;3505774;28;20448;-74
2022/05/07 12:56:34;;;;;;;9.95;2.50;;;;;;;24.93;19.47;100358.47;3503164;28;20074;-70
2022/05/07 12:58:14;;;;;;;4.78;2.53;;;;;;;24.97;20.00;100354.94;3505594;28;20376;-71
2022/05/07 12:59:55;;;;;;;9.23;1.90;;;;;;;25.06;20.13;100355.19;3503326;28;20047;-71
2022/05/07 13:01:38;;;;;;;4.40;2.30;;;;;;;25.11;19.81;100362.53;3504470;28;20055;-71
2022/05/07 13:03:19;;;;;;;6.07;2.03;;;;;;;25.10;19.28;100356.28;3503838;28;20033;-72
2022/05/07 13:04:59;;;;;;;6.17;2.00;;;;;;;25.10;19.41;100367.19;3504367;28;20062;-70
2022/05/07 13:06:40;;;;;;;2.67;2.17;;;;;;;25.01;19.55;100363.38;3503683;28;20036;-71
2022/05/07 13:08:20;;;;;;;2.37;1.70;;;;;;;24.91;19.25;100353.31;3504170;28;20459;-72
2022/05/07 13:10:01;;;;;;;5.00;2.67;;;;;;;24.98;19.79;100366.66;3504411;28;20032;-70
2022/05/07 13:11:43;;;;;;;3.97;2.03;;;;;;;24.95;19.09;100348.09;3504311;28;20113;-71
2022/05/07 13:13:24;;;;;;;4.38;1.92;;;;;;;24.82;19.32;100346.75;3500115;28;20510;-71
